sensor_id;sensor_type;location;lat;lon;timestamp;pressure;altitude;pressure_sealevel;temperature;humidity
83733;BME280;73710;49.968;8.338;2024-03-23T05:06:00;51674.19;;;-141.83;100.00
83733;BME280;73710;49.968;8.338;2024-03-23T05:08:25;51654.16;;;-141.83;100.00
83733;BME280;73710;49.968;8.338;2024-03-23T05:10:51;51684.22;;;-141.83;100.00
83733;BME280;73710;49.968;8.338;2024-03-23T05:13:16;51698.25;;;-141.83;100.00
83733;BME280;73710;49.968;8.338;2024-03-23T05:15:41;51662.16;;;-141.83;100.00
83733;BME280;73710;49.968;8.338;2024-03-23T05:18:07;51714.28;;;-141.83;100.00
83733;BME280;73710;49.968;8.338;2024-03-23T05:20:32;51662.16;;;-141.83;100.00
83733;BME280;73710;49.968;8.338;2024-03-23T05:22:58;51702.25;;;-141.83;100.00
83733;BME280;73710;49.968;8.338;2024-03-23T05:25:23;51686.22;;;-141.83;97.66
83733;BME280;73710;49.968;8.338;2024-03-23T05:27:48;51698.25;;;-141.83;97.88
83733;BME280;73710;49.968;8.338;2024-03-23T05:30:14;51668.19;;;-141.83;97.56
83733;BME280;73710;49.968;8.338;2024-03-23T05:32:40;51682.22;;;-141.83;96.06
83733;BME280;73710;49.968;8.338;2024-03-23T05:35:07;51664.19;;;-141.83;93.92
83733;BME280;73710;49.968;8.338;2024-03-23T05:37:33;51672.19;;;-141.83;92.40
83733;BME280;73710;49.968;8.338;2024-03-23T05:39:59;51700.25;;;-141.83;90.72
83733;BME280;73710;49.968;8.338;2024-03-23T05:42:25;51674.19;;;-141.83;91.13
83733;BME280;73710;49.968;8.338;2024-03-23T05:44:51;51696.25;;;-141.83;91.03
83733;BME280;73710;49.968;8.338;2024-03-23T05:47:17;51706.25;;;-141.83;91.06
83733;BME280;73710;49.968;8.338;2024-03-23T05:49:43;51634.09;;;-141.83;89.06
83733;BME280;73710;49.968;8.338;2024-03-23T05:52:08;51694.25;;;-141.83;87.65
83733;BME280;73710;49.968;8.338;2024-03-23T05:54:34;51668.19;;;-141.83;86.88
83733;BME280;73710;49.968;8.338;2024-03-23T05:57:00;51656.16;;;-141.83;87.47
83733;BME280;73710;49.968;8.338;2024-03-23T05:59:25;51670.19;;;-141.83;86.97
83733;BME280;73710;49.968;8.338;2024-03-23T06:01:52;51692.22;;;-141.83;85.10
83733;BME280;73710;49.968;8.338;2024-03-23T06:04:20;51680.22;;;-141.83;84.83
83733;BME280;73710;49.968;8.338;2024-03-23T06:06:46;51682.22;;;-141.83;85.61
83733;BME280;73710;49.968;8.338;2024-03-23T06:09:12;51672.19;;;-141.83;84.42
83733;BME280;73710;49.968;8.338;2024-03-23T06:11:37;51692.22;;;-141.83;84.07
83733;BME280;73710;49.968;8.338;2024-03-23T06:14:03;51674.19;;;-141.83;84.88
83733;BME280;73710;49.968;8.338;2024-03-23T06:16:29;51670.19;;;-141.83;82.16
83733;BME280;73710;49.968;8.338;2024-03-23T06:18:56;51652.16;;;-141.83;81.36
83733;BME280;73710;49.968;8.338;2024-03-23T06:21:21;51682.22;;;-141.83;81.00
83733;BME280;73710;49.968;8.338;2024-03-23T06:23:51;51696.25;;;-141.83;78.98
83733;BME280;73710;49.968;8.338;2024-03-23T06:26:20;51718.28;;;-141.83;80.51
83733;BME280;73710;49.968;8.338;2024-03-23T06:28:46;51682.22;;;-141.83;81.08
83733;BME280;73710;49.968;8.338;2024-03-23T06:31:12;51700.25;;;-141.83;79.54
83733;BME280;73710;49.968;8.338;2024-03-23T06:33:38;51686.22;;;-141.83;80.38
83733;BME280;73710;49.968;8.338;2024-03-23T06:36:07;51660.16;;;-141.83;79.98
83733;BME280;73710;49.968;8.338;2024-03-23T06:38:33;51698.25;;;-141.83;80.54
83733;BME280;73710;49.968;8.338;2024-03-23T06:41:02;51652.16;;;-141.83;78.59
83733;BME280;73710;49.968;8.338;2024-03-23T06:43:27;51698.25;;;-141.83;80.46
83733;BME280;73710;49.968;8.338;2024-03-23T06:45:54;51672.19;;;-141.83;77.80
83733;BME280;73710;49.968;8.338;2024-03-23T06:48:20;51666.19;;;-141.83;78.46
83733;BME280;73710;49.968;8.338;2024-03-23T06:50:46;51656.16;;;-141.83;78.51
83733;BME280;73710;49.968;8.338;2024-03-23T06:53:12;51626.09;;;-141.83;78.70
83733;BME280;73710;49.968;8.338;2024-03-23T06:55:38;51660.16;;;-141.83;79.55
83733;BME280;73710;49.968;8.338;2024-03-23T06:58:03;51710.28;;;-141.83;77.73
83733;BME280;73710;49.968;8.338;2024-03-23T07:00:29;51698.25;;;-141.83;79.60
83733;BME280;73710;49.968;8.338;2024-03-23T07:02:55;51674.19;;;-141.83;79.61
83733;BME280;73710;49.968;8.338;2024-03-23T07:05:20;51618.06;;;-141.83;80.01
83733;BME280;73710;49.968;8.338;2024-03-23T07:07:45;51692.22;;;-141.83;79.28
83733;BME280;73710;49.968;8.338;2024-03-23T07:10:11;51660.16;;;-141.83;77.97
83733;BME280;73710;49.968;8.338;2024-03-23T07:12:36;51698.25;;;-141.83;75.47
83733;BME280;73710;49.968;8.338;2024-03-23T07:15:02;51682.22;;;-141.83;72.55
83733;BME280;73710;49.968;8.338;2024-03-23T07:17:27;51690.22;;;-141.83;72.88
83733;BME280;73710;49.968;8.338;2024-03-23T07:19:53;51686.22;;;-141.83;66.99
83733;BME280;73710;49.968;8.338;2024-03-23T07:22:18;51664.19;;;-141.83;67.57
83733;BME280;73710;49.968;8.338;2024-03-23T07:24:44;51676.19;;;-141.83;66.96
83733;BME280;73710;49.968;8.338;2024-03-23T07:27:09;51670.19;;;-141.83;69.09
83733;BME280;73710;49.968;8.338;2024-03-23T07:29:35;51682.22;;;-141.83;68.04
83733;BME280;73710;49.968;8.338;2024-03-23T07:32:01;51692.22;;;-141.83;69.03
83733;BME280;73710;49.968;8.338;2024-03-23T07:34:26;51674.19;;;-141.83;66.27
83733;BME280;73710;49.968;8.338;2024-03-23T07:36:52;51694.25;;;-141.83;67.36
83733;BME280;73710;49.968;8.338;2024-03-23T07:39:17;51696.25;;;-141.83;66.46
83733;BME280;73710;49.968;8.338;2024-03-23T07:41:46;51684.22;;;-141.83;68.87
83733;BME280;73710;49.968;8.338;2024-03-23T07:44:11;51682.22;;;-141.83;68.67
83733;BME280;73710;49.968;8.338;2024-03-23T07:46:37;51734.31;;;-141.83;70.14
83733;BME280;73710;49.968;8.338;2024-03-23T07:49:04;51690.22;;;-141.83;70.79
83733;BME280;73710;49.968;8.338;2024-03-23T07:51:29;51722.31;;;-141.83;70.81
83733;BME280;73710;49.968;8.338;2024-03-23T07:53:55;51670.19;;;-141.83;71.06
83733;BME280;73710;49.968;8.338;2024-03-23T07:56:20;51702.25;;;-141.83;69.92
83733;BME280;73710;49.968;8.338;2024-03-23T07:58:46;51656.16;;;-141.83;69.91
83733;BME280;73710;49.968;8.338;2024-03-23T08:01:14;51696.25;;;-141.83;69.51
83733;BME280;73710;49.968;8.338;2024-03-23T08:03:46;51694.25;;;-141.83;67.06
83733;BME280;73710;49.968;8.338;2024-03-23T08:06:15;51714.28;;;-141.83;67.97
83733;BME280;73710;49.968;8.338;2024-03-23T08:08:42;51702.25;;;-141.83;65.77
83733;BME280;73710;49.968;8.338;2024-03-23T08:11:07;51686.22;;;-141.83;65.06
83733;BME280;73710;49.968;8.338;2024-03-23T08:13:34;51714.28;;;-141.83;65.31
83733;BME280;73710;49.968;8.338;2024-03-23T08:16:00;51728.31;;;-141.83;63.96
83733;BME280;73710;49.968;8.338;2024-03-23T08:18:26;51702.25;;;-141.83;65.88
83733;BME280;73710;49.968;8.338;2024-03-23T08:20:59;51726.31;;;-141.83;64.58
83733;BME280;73710;49.968;8.338;2024-03-23T08:23:26;51684.22;;;-141.83;63.61
83733;BME280;73710;49.968;8.338;2024-03-23T08:25:56;51690.22;;;-141.83;63.86
83733;BME280;73710;49.968;8.338;2024-03-23T08:28:22;51700.25;;;-141.83;64.28
83733;BME280;73710;49.968;8.338;2024-03-23T08:30:47;51674.19;;;-141.83;65.12
83733;BME280;73710;49.968;8.338;2024-03-23T08:33:13;51678.19;;;-141.83;64.62
83733;BME280;73710;49.968;8.338;2024-03-23T08:35:38;51694.25;;;-141.83;62.99
83733;BME280;73710;49.968;8.338;2024-03-23T08:38:04;51688.22;;;-141.83;62.55
83733;BME280;73710;49.968;8.338;2024-03-23T08:40:29;51698.25;;;-141.83;63.04
83733;BME280;73710;49.968;8.338;2024-03-23T08:42:54;51742.34;;;-141.83;61.44
83733;BME280;73710;49.968;8.338;2024-03-23T08:45:20;51702.25;;;-141.83;61.12
83733;BME280;73710;49.968;8.338;2024-03-23T08:47:45;51710.28;;;-141.83;59.03
83733;BME280;73710;49.968;8.338;2024-03-23T08:50:10;51720.28;;;-141.83;58.19
83733;BME280;73710;49.968;8.338;2024-03-23T08:52:36;51718.28;;;-141.83;58.51
83733;BME280;73710;49.968;8.338;2024-03-23T08:55:01;51676.19;;;-141.83;59.65
83733;BME280;73710;49.968;8.338;2024-03-23T08:57:26;51708.28;;;-141.83;57.77
83733;BME280;73710;49.968;8.338;2024-03-23T08:59:52;51684.22;;;-141.83;57.77
83733;BME280;73710;49.968;8.338;2024-03-23T09:02:17;51722.31;;;-141.83;56.56
83733;BME280;73710;49.968;8.338;2024-03-23T09:04:44;51702.25;;;-141.83;56.73
83733;BME280;73710;49.968;8.338;2024-03-23T09:07:09;51738.34;;;-141.83;55.27
83733;BME280;73710;49.968;8.338;2024-03-23T09:09:34;51706.25;;;-141.83;55.36
83733;BME280;73710;49.968;8.338;2024-03-23T09:12:00;51708.28;;;-141.83;55.09
83733;BME280;73710;49.968;8.338;2024-03-23T09:14:25;51710.28;;;-141.83;52.77
83733;BME280;73710;49.968;8.338;2024-03-23T09:16:51;51718.28;;;-141.83;51.64
83733;BME280;73710;49.968;8.338;2024-03-23T09:19:17;51702.25;;;-141.83;51.38
83733;BME280;73710;49.968;8.338;2024-03-23T09:21:42;51750.38;;;-141.83;50.91
83733;BME280;73710;49.968;8.338;2024-03-23T09:24:08;51736.34;;;-141.83;49.13
83733;BME280;73710;49.968;8.338;2024-03-23T09:26:33;51704.25;;;-141.83;48.47
83733;BME280;73710;49.968;8.338;2024-03-23T09:29:00;51708.28;;;-141.83;49.69
83733;BME280;73710;49.968;8.338;2024-03-23T09:31:25;51724.31;;;-141.83;47.60
83733;BME280;73710;49.968;8.338;2024-03-23T09:33:50;51730.31;;;-141.83;46.30
83733;BME280;73710;49.968;8.338;2024-03-23T09:36:16;51710.28;;;-141.83;47.07
83733;BME280;73710;49.968;8.338;2024-03-23T09:38:41;51728.31;;;-141.83;46.37
83733;BME280;73710;49.968;8.338;2024-03-23T09:41:07;51770.41;;;-141.83;44.61
83733;BME280;73710;49.968;8.338;2024-03-23T09:43:34;51752.38;;;-141.83;44.16
83733;BME280;73710;49.968;8.338;2024-03-23T09:45:59;51776.41;;;-141.83;44.14
83733;BME280;73710;49.968;8.338;2024-03-23T09:48:26;51746.34;;;-141.83;43.50
83733;BME280;73710;49.968;8.338;2024-03-23T09:50:52;51702.25;;;-141.83;44.18
83733;BME280;73710;49.968;8.338;2024-03-23T09:53:17;51738.34;;;-141.83;44.19
83733;BME280;73710;49.968;8.338;2024-03-23T09:55:44;51718.28;;;-141.83;44.37
83733;BME280;73710;49.968;8.338;2024-03-23T09:58:15;51724.31;;;-141.83;44.16
83733;BME280;73710;49.968;8.338;2024-03-23T10:00:40;51740.34;;;-141.83;43.08
83733;BME280;73710;49.968;8.338;2024-03-23T10:03:06;51714.28;;;-141.83;42.81
83733;BME280;73710;49.968;8.338;2024-03-23T10:05:32;51710.28;;;-141.83;43.12
83733;BME280;73710;49.968;8.338;2024-03-23T10:08:00;51706.25;;;-141.83;43.39
83733;BME280;73710;49.968;8.338;2024-03-23T10:10:26;51690.22;;;-141.83;42.52
83733;BME280;73710;49.968;8.338;2024-03-23T10:12:51;51734.31;;;-141.83;42.67
83733;BME280;73710;49.968;8.338;2024-03-23T10:15:24;51722.31;;;-141.83;42.77
83733;BME280;73710;49.968;8.338;2024-03-23T10:17:50;51714.28;;;-141.83;42.50
83733;BME280;73710;49.968;8.338;2024-03-23T10:20:20;51722.31;;;-141.83;42.43
83733;BME280;73710;49.968;8.338;2024-03-23T10:22:48;51762.38;;;-141.83;41.91
83733;BME280;73710;49.968;8.338;2024-03-23T10:25:13;51714.28;;;-141.83;42.30
83733;BME280;73710;49.968;8.338;2024-03-23T10:27:39;51704.25;;;-141.83;43.87
83733;BME280;73710;49.968;8.338;2024-03-23T10:30:12;51678.19;;;-141.83;47.97
83733;BME280;73710;49.968;8.338;2024-03-23T10:32:40;51660.16;;;-141.83;52.08
83733;BME280;73710;49.968;8.338;2024-03-23T10:35:16;51622.09;;;-141.83;54.17
83733;BME280;73710;49.968;8.338;2024-03-23T10:37:44;51626.09;;;-141.83;57.43
83733;BME280;73710;49.968;8.338;2024-03-23T10:40:11;51626.09;;;-141.83;61.00
83733;BME280;73710;49.968;8.338;2024-03-23T10:42:38;51598.03;;;-141.83;65.92
83733;BME280;73710;49.968;8.338;2024-03-23T10:45:04;51610.06;;;-141.83;72.86
83733;BME280;73710;49.968;8.338;2024-03-23T10:47:31;51604.03;;;-141.83;74.97
83733;BME280;73710;49.968;8.338;2024-03-23T10:49:57;51561.94;;;-141.83;73.74
83733;BME280;73710;49.968;8.338;2024-03-23T10:52:22;51610.06;;;-141.83;72.41
83733;BME280;73710;49.968;8.338;2024-03-23T10:54:51;51606.06;;;-141.83;72.24
83733;BME280;73710;49.968;8.338;2024-03-23T10:57:20;51638.13;;;-141.83;70.28
83733;BME280;73710;49.968;8.338;2024-03-23T10:59:46;51622.09;;;-141.83;68.22
83733;BME280;73710;49.968;8.338;2024-03-23T11:02:19;51573.97;;;-141.83;69.46
83733;BME280;73710;49.968;8.338;2024-03-23T11:04:45;51608.06;;;-141.83;70.30
83733;BME280;73710;49.968;8.338;2024-03-23T11:07:29;51606.06;;;-141.83;71.60
83733;BME280;73710;49.968;8.338;2024-03-23T11:09:56;51618.06;;;-141.83;70.04
83733;BME280;73710;49.968;8.338;2024-03-23T11:15:11;51646.13;;;-141.83;71.02
83733;BME280;73710;49.968;8.338;2024-03-23T11:17:36;51604.03;;;-141.83;69.65
83733;BME280;73710;49.968;8.338;2024-03-23T11:20:03;51594.03;;;-141.83;68.39
83733;BME280;73710;49.968;8.338;2024-03-23T11:22:44;51654.16;;;-141.83;65.70
83733;BME280;73710;49.968;8.338;2024-03-23T11:25:20;51620.06;;;-141.83;66.96
83733;BME280;73710;49.968;8.338;2024-03-23T11:27:47;51666.19;;;-141.83;63.87
83733;BME280;73710;49.968;8.338;2024-03-23T11:30:17;51624.09;;;-141.83;69.61
83733;BME280;73710;49.968;8.338;2024-03-23T11:32:43;51704.25;;;-141.83;66.45
83733;BME280;73710;49.968;8.338;2024-03-23T11:35:09;51698.25;;;-141.83;63.95
83733;BME280;73710;49.968;8.338;2024-03-23T11:37:38;51714.28;;;-141.83;59.54
83733;BME280;73710;49.968;8.338;2024-03-23T11:40:17;51682.22;;;-141.83;55.61
83733;BME280;73710;49.968;8.338;2024-03-23T11:42:43;51710.28;;;-141.83;58.65
83733;BME280;73710;49.968;8.338;2024-03-23T11:45:09;51668.19;;;-141.83;58.31
83733;BME280;73710;49.968;8.338;2024-03-23T11:47:34;51692.22;;;-141.83;58.38
83733;BME280;73710;49.968;8.338;2024-03-23T11:50:00;51674.19;;;-141.83;54.66
83733;BME280;73710;49.968;8.338;2024-03-23T11:52:25;51718.28;;;-141.83;52.98
83733;BME280;73710;49.968;8.338;2024-03-23T11:54:51;51710.28;;;-141.83;52.92
83733;BME280;73710;49.968;8.338;2024-03-23T11:57:16;51732.31;;;-141.83;48.02
83733;BME280;73710;49.968;8.338;2024-03-23T11:59:42;51700.25;;;-141.83;47.63
83733;BME280;73710;49.968;8.338;2024-03-23T12:02:13;51704.25;;;-141.83;47.56
83733;BME280;73710;49.968;8.338;2024-03-23T12:04:41;51754.38;;;-141.83;47.12
83733;BME280;73710;49.968;8.338;2024-03-23T12:09:39;51774.41;;;-141.83;46.07
83733;BME280;73710;49.968;8.338;2024-03-23T12:12:16;51728.31;;;-141.83;45.29
83733;BME280;73710;49.968;8.338;2024-03-23T12:14:45;51712.28;;;-141.83;45.64
83733;BME280;73710;49.968;8.338;2024-03-23T12:17:14;51722.31;;;-141.83;46.50
83733;BME280;73710;49.968;8.338;2024-03-23T12:19:41;51754.38;;;-141.83;44.75
83733;BME280;73710;49.968;8.338;2024-03-23T12:22:07;51722.31;;;-141.83;42.14
83733;BME280;73710;49.968;8.338;2024-03-23T12:24:34;51698.25;;;-141.83;43.07
83733;BME280;73710;49.968;8.338;2024-03-23T12:27:03;51754.38;;;-141.83;42.73
83733;BME280;73710;49.968;8.338;2024-03-23T12:29:32;51722.31;;;-141.83;42.98
83733;BME280;73710;49.968;8.338;2024-03-23T12:32:00;51782.44;;;-141.83;42.02
83733;BME280;73710;49.968;8.338;2024-03-23T12:34:26;51774.41;;;-141.83;41.63
83733;BME280;73710;49.968;8.338;2024-03-23T12:36:51;51732.31;;;-141.83;40.52
83733;BME280;73710;49.968;8.338;2024-03-23T12:39:16;51732.31;;;-141.83;40.35
83733;BME280;73710;49.968;8.338;2024-03-23T12:41:42;51756.38;;;-141.83;40.38
83733;BME280;73710;49.968;8.338;2024-03-23T12:44:07;51754.38;;;-141.83;38.92
83733;BME280;73710;49.968;8.338;2024-03-23T12:46:37;51742.34;;;-141.83;39.88
83733;BME280;73710;49.968;8.338;2024-03-23T12:49:02;51744.34;;;-141.83;39.77
83733;BME280;73710;49.968;8.338;2024-03-23T12:51:28;51674.19;;;-141.83;43.82
83733;BME280;73710;49.968;8.338;2024-03-23T12:53:53;51640.13;;;-141.83;59.55
83733;BME280;73710;49.968;8.338;2024-03-23T12:56:19;51606.06;;;-141.83;76.98
83733;BME280;73710;49.968;8.338;2024-03-23T12:58:44;51551.94;;;-141.83;86.99
83733;BME280;73710;49.968;8.338;2024-03-23T13:01:10;51537.91;;;-141.83;95.33
83733;BME280;73710;49.968;8.338;2024-03-23T13:03:35;51588.00;;;-141.83;99.85
83733;BME280;73710;49.968;8.338;2024-03-23T13:06:00;51567.97;;;-141.83;100.00
83733;BME280;73710;49.968;8.338;2024-03-23T13:08:26;51573.97;;;-141.83;97.42
83733;BME280;73710;49.968;8.338;2024-03-23T13:10:52;51590.00;;;-141.83;94.25
83733;BME280;73710;49.968;8.338;2024-03-23T13:13:17;51642.13;;;-141.83;95.90
83733;BME280;73710;49.968;8.338;2024-03-23T13:15:49;51628.09;;;-141.83;88.29
83733;BME280;73710;49.968;8.338;2024-03-23T13:18:15;51638.13;;;-141.83;85.53
83733;BME280;73710;49.968;8.338;2024-03-23T13:20:40;51606.06;;;-141.83;89.06
83733;BME280;73710;49.968;8.338;2024-03-23T13:23:06;51662.16;;;-141.83;88.05
83733;BME280;73710;49.968;8.338;2024-03-23T13:25:31;51652.16;;;-141.83;87.62
83733;BME280;73710;49.968;8.338;2024-03-23T13:27:56;51662.16;;;-141.83;91.31
83733;BME280;73710;49.968;8.338;2024-03-23T13:30:24;51626.09;;;-141.83;81.99
83733;BME280;73710;49.968;8.338;2024-03-23T13:33:02;51674.19;;;-141.83;81.72
83733;BME280;73710;49.968;8.338;2024-03-23T13:35:29;51660.16;;;-141.83;78.41
83733;BME280;73710;49.968;8.338;2024-03-23T13:37:54;51636.13;;;-141.83;77.25
83733;BME280;73710;49.968;8.338;2024-03-23T13:40:19;51674.19;;;-141.83;76.17
83733;BME280;73710;49.968;8.338;2024-03-23T13:42:45;51670.19;;;-141.83;74.90
83733;BME280;73710;49.968;8.338;2024-03-23T13:45:10;51672.19;;;-141.83;73.74
83733;BME280;73710;49.968;8.338;2024-03-23T13:47:37;51666.19;;;-141.83;69.92
83733;BME280;73710;49.968;8.338;2024-03-23T13:50:03;51694.25;;;-141.83;63.08
83733;BME280;73710;49.968;8.338;2024-03-23T13:52:29;51712.28;;;-141.83;62.55
83733;BME280;73710;49.968;8.338;2024-03-23T13:54:55;51694.25;;;-141.83;60.09
83733;BME280;73710;49.968;8.338;2024-03-23T13:57:21;51694.25;;;-141.83;59.58
83733;BME280;73710;49.968;8.338;2024-03-23T13:59:48;51688.22;;;-141.83;62.47
83733;BME280;73710;49.968;8.338;2024-03-23T14:02:14;51724.31;;;-141.83;57.95
83733;BME280;73710;49.968;8.338;2024-03-23T14:04:40;51694.25;;;-141.83;57.88
83733;BME280;73710;49.968;8.338;2024-03-23T14:07:05;51720.28;;;-141.83;57.08
83733;BME280;73710;49.968;8.338;2024-03-23T14:09:32;51706.25;;;-141.83;55.95
83733;BME280;73710;49.968;8.338;2024-03-23T14:11:58;51702.25;;;-141.83;56.15
83733;BME280;73710;49.968;8.338;2024-03-23T14:14:25;51728.31;;;-141.83;55.47
83733;BME280;73710;49.968;8.338;2024-03-23T14:16:50;51742.34;;;-141.83;54.04
83733;BME280;73710;49.968;8.338;2024-03-23T14:19:16;51734.31;;;-141.83;49.84
83733;BME280;73710;49.968;8.338;2024-03-23T14:21:41;51678.19;;;-141.83;49.89
83733;BME280;73710;49.968;8.338;2024-03-23T14:24:10;51758.38;;;-141.83;48.02
83733;BME280;73710;49.968;8.338;2024-03-23T14:26:35;51798.47;;;-141.83;43.11
83733;BME280;73710;49.968;8.338;2024-03-23T14:29:00;51804.47;;;-141.83;39.24
83733;BME280;73710;49.968;8.338;2024-03-23T14:31:26;51802.47;;;-141.83;37.95
83733;BME280;73710;49.968;8.338;2024-03-23T14:33:51;51818.50;;;-141.83;36.94
83733;BME280;73710;49.968;8.338;2024-03-23T14:36:17;51862.59;;;-141.83;37.62
83733;BME280;73710;49.968;8.338;2024-03-23T14:38:49;51818.50;;;-141.83;38.68
83733;BME280;73710;49.968;8.338;2024-03-23T14:41:14;51754.38;;;-141.83;39.70
83733;BME280;73710;49.968;8.338;2024-03-23T14:43:40;51758.38;;;-141.83;40.49
83733;BME280;73710;49.968;8.338;2024-03-23T14:46:15;51846.56;;;-141.83;37.79
83733;BME280;73710;49.968;8.338;2024-03-23T14:48:44;51772.41;;;-141.83;38.35
83733;BME280;73710;49.968;8.338;2024-03-23T14:51:11;51812.50;;;-141.83;36.18
83733;BME280;73710;49.968;8.338;2024-03-23T14:53:38;51838.56;;;-141.83;35.40
83733;BME280;73710;49.968;8.338;2024-03-23T14:56:08;51802.47;;;-141.83;37.02
83733;BME280;73710;49.968;8.338;2024-03-23T14:58:34;51822.53;;;-141.83;36.04
83733;BME280;73710;49.968;8.338;2024-03-23T15:01:09;51862.59;;;-141.83;33.69
83733;BME280;73710;49.968;8.338;2024-03-23T15:03:38;51846.56;;;-141.83;33.90
83733;BME280;73710;49.968;8.338;2024-03-23T15:06:05;51730.31;;;-141.83;38.23
83733;BME280;73710;49.968;8.338;2024-03-23T15:08:30;51710.28;;;-141.83;41.93
83733;BME280;73710;49.968;8.338;2024-03-23T15:10:59;51682.22;;;-141.83;44.00
83733;BME280;73710;49.968;8.338;2024-03-23T15:13:24;51684.22;;;-141.83;44.89
83733;BME280;73710;49.968;8.338;2024-03-23T15:15:50;51674.19;;;-141.83;46.08
83733;BME280;73710;49.968;8.338;2024-03-23T15:18:17;51682.22;;;-141.83;46.62
83733;BME280;73710;49.968;8.338;2024-03-23T15:21:00;51652.16;;;-141.83;47.15
83733;BME280;73710;49.968;8.338;2024-03-23T15:23:34;51660.16;;;-141.83;49.97
83733;BME280;73710;49.968;8.338;2024-03-23T15:26:02;51656.16;;;-141.83;52.27
83733;BME280;73710;49.968;8.338;2024-03-23T15:28:28;51646.13;;;-141.83;54.44
83733;BME280;73710;49.968;8.338;2024-03-23T15:31:19;51652.16;;;-141.83;57.91
83733;BME280;73710;49.968;8.338;2024-03-23T15:33:45;51622.09;;;-141.83;60.17
83733;BME280;73710;49.968;8.338;2024-03-23T15:36:10;51594.03;;;-141.83;61.11
83733;BME280;73710;49.968;8.338;2024-03-23T15:38:36;51652.16;;;-141.83;60.38
83733;BME280;73710;49.968;8.338;2024-03-23T15:41:03;51650.16;;;-141.83;58.21
83733;BME280;73710;49.968;8.338;2024-03-23T15:43:29;51688.22;;;-141.83;50.24
83733;BME280;73710;49.968;8.338;2024-03-23T15:45:58;51734.31;;;-141.83;46.71
83733;BME280;73710;49.968;8.338;2024-03-23T15:48:25;51734.31;;;-141.83;45.53
83733;BME280;73710;49.968;8.338;2024-03-23T15:50:55;51740.34;;;-141.83;41.90
83733;BME280;73710;49.968;8.338;2024-03-23T15:53:21;51734.31;;;-141.83;43.27
83733;BME280;73710;49.968;8.338;2024-03-23T15:56:00;51708.28;;;-141.83;44.23
83733;BME280;73710;49.968;8.338;2024-03-23T15:58:27;51702.25;;;-141.83;43.45
83733;BME280;73710;49.968;8.338;2024-03-23T16:00:59;51706.25;;;-141.83;45.75
83733;BME280;73710;49.968;8.338;2024-03-23T16:03:25;51662.16;;;-141.83;47.67
83733;BME280;73710;49.968;8.338;2024-03-23T16:05:55;51662.16;;;-141.83;49.05
83733;BME280;73710;49.968;8.338;2024-03-23T16:08:20;51672.19;;;-141.83;49.54
83733;BME280;73710;49.968;8.338;2024-03-23T16:10:46;51646.13;;;-141.83;50.61
83733;BME280;73710;49.968;8.338;2024-03-23T16:13:12;51670.19;;;-141.83;51.64
83733;BME280;73710;49.968;8.338;2024-03-23T16:15:37;51674.19;;;-141.83;51.37
83733;BME280;73710;49.968;8.338;2024-03-23T16:18:03;51656.16;;;-141.83;51.25
83733;BME280;73710;49.968;8.338;2024-03-23T16:20:28;51644.13;;;-141.83;50.05
83733;BME280;73710;49.968;8.338;2024-03-23T16:22:54;51638.13;;;-141.83;49.23
83733;BME280;73710;49.968;8.338;2024-03-23T16:25:19;51650.16;;;-141.83;49.59
83733;BME280;73710;49.968;8.338;2024-03-23T16:27:44;51690.22;;;-141.83;47.73
83733;BME280;73710;49.968;8.338;2024-03-23T16:30:11;51664.19;;;-141.83;46.48
83733;BME280;73710;49.968;8.338;2024-03-23T16:32:36;51710.28;;;-141.83;46.46
83733;BME280;73710;49.968;8.338;2024-03-23T16:35:04;51664.19;;;-141.83;47.86
83733;BME280;73710;49.968;8.338;2024-03-23T16:37:29;51652.16;;;-141.83;49.57
83733;BME280;73710;49.968;8.338;2024-03-23T16:39:54;51674.19;;;-141.83;49.99
83733;BME280;73710;49.968;8.338;2024-03-23T16:42:20;51668.19;;;-141.83;51.42
83733;BME280;73710;49.968;8.338;2024-03-23T16:44:46;51654.16;;;-141.83;48.63
83733;BME280;73710;49.968;8.338;2024-03-23T16:47:12;51642.13;;;-141.83;48.77
83733;BME280;73710;49.968;8.338;2024-03-23T16:49:37;51618.06;;;-141.83;48.93
83733;BME280;73710;49.968;8.338;2024-03-23T16:52:03;51680.22;;;-141.83;49.15
83733;BME280;73710;49.968;8.338;2024-03-23T16:54:29;51686.22;;;-141.83;48.97
83733;BME280;73710;49.968;8.338;2024-03-23T16:56:55;51638.13;;;-141.83;48.75
83733;BME280;73710;49.968;8.338;2024-03-23T16:59:20;51644.13;;;-141.83;48.22
83733;BME280;73710;49.968;8.338;2024-03-23T17:01:45;51602.03;;;-141.83;47.75
83733;BME280;73710;49.968;8.338;2024-03-23T17:04:11;51632.09;;;-141.83;48.30
83733;BME280;73710;49.968;8.338;2024-03-23T17:06:37;51668.19;;;-141.83;48.59
83733;BME280;73710;49.968;8.338;2024-03-23T17:09:05;51654.16;;;-141.83;48.82
83733;BME280;73710;49.968;8.338;2024-03-23T17:11:35;51586.00;;;-141.83;50.17
83733;BME280;73710;49.968;8.338;2024-03-23T17:14:00;51612.06;;;-141.83;51.16
83733;BME280;73710;49.968;8.338;2024-03-23T17:16:25;51634.09;;;-141.83;52.39
83733;BME280;73710;49.968;8.338;2024-03-23T17:18:55;51618.06;;;-141.83;52.94
83733;BME280;73710;49.968;8.338;2024-03-23T17:21:21;51620.06;;;-141.83;53.33
83733;BME280;73710;49.968;8.338;2024-03-23T17:23:46;51618.06;;;-141.83;54.76
83733;BME280;73710;49.968;8.338;2024-03-23T17:26:12;51662.16;;;-141.83;53.64
83733;BME280;73710;49.968;8.338;2024-03-23T17:28:38;51606.06;;;-141.83;52.19
83733;BME280;73710;49.968;8.338;2024-03-23T17:31:03;51626.09;;;-141.83;52.59
83733;BME280;73710;49.968;8.338;2024-03-23T17:33:28;51616.06;;;-141.83;52.30
83733;BME280;73710;49.968;8.338;2024-03-23T17:35:54;51622.09;;;-141.83;53.26
83733;BME280;73710;49.968;8.338;2024-03-23T17:38:22;51638.13;;;-141.83;53.70
83733;BME280;73710;49.968;8.338;2024-03-23T17:40:48;51612.06;;;-141.83;54.31
83733;BME280;73710;49.968;8.338;2024-03-23T17:43:13;51571.97;;;-141.83;55.06
83733;BME280;73710;49.968;8.338;2024-03-23T17:45:39;51632.09;;;-141.83;55.27
83733;BME280;73710;49.968;8.338;2024-03-23T17:48:06;51608.06;;;-141.83;55.82